createdAt,value
2022-07-25T00:00:59.110Z,1007.65
2022-07-25T00:01:59.242Z,1007.62
2022-07-25T00:02:59.117Z,1007.61
2022-07-25T00:03:59.221Z,1007.60
2022-07-25T00:04:59.298Z,1007.61
2022-07-25T00:05:59.129Z,1007.63
2022-07-25T00:06:59.131Z,1007.61
2022-07-25T00:07:59.122Z,1007.61
2022-07-25T00:08:59.135Z,1007.61
2022-07-25T00:09:59.135Z,1007.58
2022-07-25T00:10:59.129Z,1007.57
2022-07-25T00:11:59.141Z,1007.55
2022-07-25T00:12:59.129Z,1007.53
2022-07-25T00:13:59.140Z,1007.50
2022-07-25T00:14:59.141Z,1007.50
2022-07-25T00:15:59.230Z,1007.46
2022-07-25T00:16:59.155Z,1007.45
2022-07-25T00:17:59.153Z,1007.38
2022-07-25T00:18:59.151Z,1007.37
2022-07-25T00:19:59.149Z,1007.30
2022-07-25T00:20:59.155Z,1007.29
2022-07-25T00:21:59.155Z,1007.31
2022-07-25T00:22:59.156Z,1007.29
2022-07-25T00:23:59.162Z,1007.25
2022-07-25T00:24:59.161Z,1007.21
2022-07-25T00:25:59.171Z,1007.20
2022-07-25T00:26:59.165Z,1007.15
2022-07-25T00:27:59.172Z,1007.17
2022-07-25T00:28:59.163Z,1007.14
2022-07-25T00:29:59.182Z,1007.11
2022-07-25T00:30:59.292Z,1007.12
2022-07-25T00:31:59.174Z,1007.13
2022-07-25T00:32:59.173Z,1007.09
2022-07-25T00:33:59.182Z,1007.13
2022-07-25T00:34:59.184Z,1007.09
2022-07-25T00:35:59.189Z,1007.06
2022-07-25T00:36:59.200Z,1007.09
2022-07-25T00:37:59.181Z,1007.03
2022-07-25T00:38:59.195Z,1007.06
2022-07-25T00:39:59.192Z,1007.06
2022-07-25T00:40:59.201Z,1007.08
2022-07-25T00:41:59.207Z,1007.05
2022-07-25T00:42:59.200Z,1007.06
2022-07-25T00:43:59.203Z,1007.07
2022-07-25T00:44:59.202Z,1007.02
2022-07-25T00:45:59.586Z,1007.03
2022-07-25T00:46:59.391Z,1007.00
2022-07-25T00:47:59.205Z,1006.97
2022-07-25T00:48:59.285Z,1007.02
2022-07-25T00:49:59.222Z,1006.98
2022-07-25T00:50:59.219Z,1006.89
2022-07-25T00:51:59.221Z,1006.92
2022-07-25T00:52:59.213Z,1006.88
2022-07-25T00:53:59.224Z,1006.91
2022-07-25T00:54:59.215Z,1006.90
2022-07-25T00:55:59.217Z,1006.88
2022-07-25T00:56:59.226Z,1006.87
2022-07-25T00:57:59.232Z,1006.89
2022-07-25T00:58:59.239Z,1006.91
2022-07-25T00:59:59.229Z,1006.87
2022-07-25T01:00:59.238Z,1006.89
2022-07-25T01:01:59.340Z,1006.89
2022-07-25T01:02:59.315Z,1006.91
2022-07-25T01:03:59.247Z,1006.93
2022-07-25T01:04:59.252Z,1006.92
2022-07-25T01:05:59.261Z,1006.89
2022-07-25T01:06:59.241Z,1006.90
2022-07-25T01:07:59.251Z,1006.88
2022-07-25T01:08:59.253Z,1006.93
2022-07-25T01:09:59.257Z,1006.89
2022-07-25T01:10:59.259Z,1006.89
2022-07-25T01:11:59.256Z,1006.89
2022-07-25T01:12:59.267Z,1006.86
2022-07-25T01:13:59.253Z,1006.87
2022-07-25T01:14:59.263Z,1006.86
2022-07-25T01:15:59.340Z,1006.83
2022-07-25T01:16:59.264Z,1006.84
2022-07-25T01:17:59.766Z,1006.85
2022-07-25T01:18:59.283Z,1006.82
2022-07-25T01:19:59.276Z,1006.81
2022-07-25T01:20:59.271Z,1006.82
2022-07-25T01:21:59.286Z,1006.81
2022-07-25T01:22:59.284Z,1006.81
2022-07-25T01:23:59.280Z,1006.83
2022-07-25T01:24:59.276Z,1006.79
2022-07-25T01:25:59.279Z,1006.81
2022-07-25T01:26:59.286Z,1006.80
2022-07-25T01:27:59.285Z,1006.81
2022-07-25T01:28:59.283Z,1006.80
2022-07-25T01:29:59.301Z,1006.86
2022-07-25T01:30:59.383Z,1006.87
2022-07-25T01:31:59.308Z,1006.85
2022-07-25T01:32:59.311Z,1006.90
2022-07-25T01:33:59.298Z,1006.85
2022-07-25T01:34:59.295Z,1006.86
2022-07-25T01:35:59.312Z,1006.82
2022-07-25T01:36:59.313Z,1006.83
2022-07-25T01:37:59.327Z,1006.82
2022-07-25T01:38:59.321Z,1006.84
2022-07-25T01:39:59.318Z,1006.78
2022-07-25T01:40:59.318Z,1006.82
2022-07-25T01:41:59.316Z,1006.84
2022-07-25T01:42:59.337Z,1006.81
2022-07-25T01:43:59.328Z,1006.78
2022-07-25T01:44:59.317Z,1006.77
2022-07-25T01:45:59.326Z,1006.78
2022-07-25T01:46:59.320Z,1006.78
2022-07-25T01:47:59.335Z,1006.77
2022-07-25T01:48:59.404Z,1006.81
2022-07-25T01:49:59.330Z,1006.77
2022-07-25T01:50:59.334Z,1006.77
2022-07-25T01:51:59.331Z,1006.77
2022-07-25T01:52:59.344Z,1006.73
2022-07-25T01:53:59.338Z,1006.70
2022-07-25T01:54:59.338Z,1006.68
2022-07-25T01:55:59.350Z,1006.71
2022-07-25T01:56:59.339Z,1006.67
2022-07-25T01:57:59.346Z,1006.63
2022-07-25T01:58:59.348Z,1006.66
2022-07-25T01:59:59.355Z,1006.65
2022-07-25T02:00:59.425Z,1006.63
2022-07-25T02:01:59.404Z,1006.57
2022-07-25T02:02:59.361Z,1006.60
2022-07-25T02:03:59.361Z,1006.56
2022-07-25T02:04:59.491Z,1006.55
2022-07-25T02:05:59.359Z,1006.55
2022-07-25T02:06:59.359Z,1006.53
2022-07-25T02:07:59.377Z,1006.53
2022-07-25T02:08:59.364Z,1006.54
2022-07-25T02:09:59.369Z,1006.55
2022-07-25T02:10:59.379Z,1006.54
2022-07-25T02:11:59.381Z,1006.57
2022-07-25T02:12:59.371Z,1006.55
2022-07-25T02:13:59.384Z,1006.52
2022-07-25T02:14:59.401Z,1006.51
2022-07-25T02:15:59.387Z,1006.48
2022-07-25T02:16:59.457Z,1006.48
2022-07-25T02:17:59.391Z,1006.49
2022-07-25T02:18:59.393Z,1006.48
2022-07-25T02:19:59.391Z,1006.49
2022-07-25T02:20:59.398Z,1006.45
2022-07-25T02:21:59.396Z,1006.47
2022-07-25T02:22:59.403Z,1006.51
2022-07-25T02:23:59.408Z,1006.53
2022-07-25T02:24:59.405Z,1006.49
2022-07-25T02:25:59.401Z,1006.45
2022-07-25T02:26:59.410Z,1006.45
2022-07-25T02:27:59.412Z,1006.42
2022-07-25T02:28:59.415Z,1006.46
2022-07-25T02:29:59.405Z,1006.43
2022-07-25T02:30:59.480Z,1006.44
2022-07-25T02:31:59.423Z,1006.42
2022-07-25T02:32:59.421Z,1006.37
2022-07-25T02:33:59.425Z,1006.40
2022-07-25T02:34:59.427Z,1006.35
2022-07-25T02:35:59.427Z,1006.37
2022-07-25T02:36:59.423Z,1006.38
2022-07-25T02:37:59.442Z,1006.38
2022-07-25T02:38:59.432Z,1006.35
2022-07-25T02:39:59.435Z,1006.33
2022-07-25T02:40:59.435Z,1006.34
2022-07-25T02:41:59.440Z,1006.32
2022-07-25T02:42:59.435Z,1006.33
2022-07-25T02:43:59.448Z,1006.33
2022-07-25T02:44:59.456Z,1006.29
2022-07-25T02:45:59.628Z,1006.30
2022-07-25T02:46:59.440Z,1006.31
2022-07-25T02:47:59.456Z,1006.26
2022-07-25T02:48:59.505Z,1006.26
2022-07-25T02:49:59.456Z,1006.23
2022-07-25T02:50:59.450Z,1006.21
2022-07-25T02:51:59.451Z,1006.18
2022-07-25T02:52:59.456Z,1006.19
2022-07-25T02:53:59.456Z,1006.17
2022-07-25T02:54:59.460Z,1006.15
2022-07-25T02:55:59.470Z,1006.18
2022-07-25T02:56:59.477Z,1006.19
2022-07-25T02:57:59.468Z,1006.16
2022-07-25T02:58:59.477Z,1006.15
2022-07-25T02:59:59.468Z,1006.15
2022-07-25T03:00:59.498Z,1006.15
2022-07-25T03:01:59.481Z,1006.15
2022-07-25T03:02:59.487Z,1006.17
2022-07-25T03:03:59.552Z,1006.14
2022-07-25T03:04:59.487Z,1006.16
2022-07-25T03:05:59.494Z,1006.12
2022-07-25T03:06:59.482Z,1006.09
2022-07-25T03:07:59.488Z,1006.09
2022-07-25T03:08:59.483Z,1006.08
2022-07-25T03:09:59.495Z,1006.08
2022-07-25T03:10:59.496Z,1006.07
2022-07-25T03:11:59.500Z,1006.07
2022-07-25T03:12:59.504Z,1006.09
2022-07-25T03:13:59.514Z,1006.07
2022-07-25T03:14:59.503Z,1006.04
2022-07-25T03:15:59.501Z,1006.03
2022-07-25T03:16:59.623Z,1006.05
2022-07-25T03:17:59.502Z,1006.01
2022-07-25T03:18:59.506Z,1005.97
2022-07-25T03:19:59.509Z,1006.00
2022-07-25T03:20:59.542Z,1005.93
2022-07-25T03:21:59.511Z,1005.91
2022-07-25T03:22:59.520Z,1005.90
2022-07-25T03:23:59.528Z,1005.90
2022-07-25T03:24:59.515Z,1005.87
2022-07-25T03:25:59.525Z,1005.89
2022-07-25T03:26:59.535Z,1005.91
2022-07-25T03:27:59.536Z,1005.88
2022-07-25T03:28:59.531Z,1005.84
2022-07-25T03:29:59.532Z,1005.89
2022-07-25T03:30:59.538Z,1005.87
2022-07-25T03:31:59.676Z,1005.85
2022-07-25T03:32:59.533Z,1005.86
2022-07-25T03:33:59.534Z,1005.84
2022-07-25T03:34:59.537Z,1005.84
2022-07-25T03:35:59.548Z,1005.83
2022-07-25T03:36:59.551Z,1005.86
2022-07-25T03:37:59.554Z,1005.80
2022-07-25T03:38:59.544Z,1005.79
2022-07-25T03:39:59.544Z,1005.75
2022-07-25T03:40:59.547Z,1005.81
2022-07-25T03:41:59.560Z,1005.75
2022-07-25T03:42:59.557Z,1005.73
2022-07-25T03:43:59.565Z,1005.74
2022-07-25T03:44:59.570Z,1005.74
2022-07-25T03:45:59.642Z,1005.70
2022-07-25T03:46:59.572Z,1005.69
2022-07-25T03:47:59.566Z,1005.71
2022-07-25T03:48:59.670Z,1005.68
2022-07-25T03:49:59.566Z,1005.66
2022-07-25T03:51:03.536Z,1005.68
2022-07-25T03:51:59.578Z,1005.65
2022-07-25T03:52:59.583Z,1005.63
2022-07-25T03:53:59.579Z,1005.62
2022-07-25T03:54:59.604Z,1005.60
2022-07-25T03:55:59.591Z,1005.58
2022-07-25T03:56:59.596Z,1005.59
2022-07-25T03:57:59.587Z,1005.55
2022-07-25T03:58:59.605Z,1005.53
2022-07-25T03:59:59.599Z,1005.59
2022-07-25T04:00:59.663Z,1005.59
2022-07-25T04:01:59.659Z,1005.54
2022-07-25T04:02:59.592Z,1005.56
2022-07-25T04:03:59.598Z,1005.56
2022-07-25T04:04:59.594Z,1005.57
2022-07-25T04:05:59.606Z,1005.59
2022-07-25T04:06:59.608Z,1005.58
2022-07-25T04:07:59.601Z,1005.57
2022-07-25T04:08:59.613Z,1005.57
2022-07-25T04:09:59.621Z,1005.59
2022-07-25T04:10:59.603Z,1005.53
2022-07-25T04:11:59.608Z,1005.54
2022-07-25T04:12:59.615Z,1005.52
2022-07-25T04:13:59.609Z,1005.52
2022-07-25T04:14:59.623Z,1005.50
2022-07-25T04:15:59.626Z,1005.53
2022-07-25T04:16:59.685Z,1005.56
2022-07-25T04:17:59.635Z,1005.49
2022-07-25T04:18:59.634Z,1005.52
2022-07-25T04:19:59.636Z,1005.52
2022-07-25T04:20:59.632Z,1005.50
2022-07-25T04:21:59.634Z,1005.49
2022-07-25T04:22:59.644Z,1005.52
2022-07-25T04:23:59.635Z,1005.49
2022-07-25T04:24:59.635Z,1005.50
2022-07-25T04:25:59.638Z,1005.46
2022-07-25T04:26:59.650Z,1005.48
2022-07-25T04:27:59.645Z,1005.45
2022-07-25T04:28:59.650Z,1005.47
2022-07-25T04:29:59.650Z,1005.45
2022-07-25T04:30:59.651Z,1005.45
2022-07-25T04:31:59.798Z,1005.46
2022-07-25T04:32:59.648Z,1005.43
2022-07-25T04:33:59.656Z,1005.40
2022-07-25T04:34:59.661Z,1005.40
2022-07-25T04:35:59.662Z,1005.37
2022-07-25T04:36:59.657Z,1005.39
2022-07-25T04:37:59.662Z,1005.38
2022-07-25T04:38:59.667Z,1005.37
2022-07-25T04:39:59.687Z,1005.39
2022-07-25T04:40:59.674Z,1005.38
2022-07-25T04:41:59.673Z,1005.40
2022-07-25T04:42:59.677Z,1005.37
2022-07-25T04:43:59.678Z,1005.39
2022-07-25T04:44:59.679Z,1005.34
2022-07-25T04:45:59.837Z,1005.36
2022-07-25T04:46:59.685Z,1005.32
2022-07-25T04:47:59.687Z,1005.34
2022-07-25T04:48:59.759Z,1005.31
2022-07-25T04:49:59.698Z,1005.30
2022-07-25T04:50:59.695Z,1005.25
2022-07-25T04:51:59.700Z,1005.26
2022-07-25T04:52:59.693Z,1005.24
2022-07-25T04:53:59.699Z,1005.24
2022-07-25T04:54:59.701Z,1005.20
2022-07-25T04:55:59.699Z,1005.20
2022-07-25T04:56:59.704Z,1005.20
2022-07-25T04:57:59.707Z,1005.22
2022-07-25T04:59:06.154Z,1005.22
2022-07-25T04:59:59.702Z,1005.17
2022-07-25T05:00:59.759Z,1005.19
2022-07-25T05:01:59.762Z,1005.20
2022-07-25T05:02:59.713Z,1005.18
2022-07-25T05:03:59.714Z,1005.18
2022-07-25T05:04:59.713Z,1005.17
2022-07-25T05:05:59.715Z,1005.14
2022-07-25T05:06:59.733Z,1005.18
2022-07-25T05:07:59.741Z,1005.14
2022-07-25T05:08:59.724Z,1005.13
2022-07-25T05:09:59.735Z,1005.16
2022-07-25T05:10:59.724Z,1005.15
2022-07-25T05:11:59.734Z,1005.15
2022-07-25T05:12:59.726Z,1005.17
2022-07-25T05:13:59.732Z,1005.15
2022-07-25T05:14:59.739Z,1005.13
2022-07-25T05:15:59.771Z,1005.12
2022-07-25T05:16:59.747Z,1005.11
2022-07-25T05:17:59.743Z,1005.13
2022-07-25T05:18:59.752Z,1005.10
2022-07-25T05:19:59.746Z,1005.09
2022-07-25T05:20:59.756Z,1005.08
2022-07-25T05:21:59.749Z,1005.05
2022-07-25T05:22:59.755Z,1005.04
2022-07-25T05:23:59.756Z,1005.04
2022-07-25T05:24:59.754Z,1005.03
2022-07-25T05:25:59.760Z,1005.00
2022-07-25T05:26:59.771Z,1005.00
2022-07-25T05:27:59.763Z,1005.02
2022-07-25T05:28:59.767Z,1005.03
2022-07-25T05:29:59.761Z,1005.02
2022-07-25T05:30:59.818Z,1004.99
2022-07-25T05:31:59.910Z,1004.97
2022-07-25T05:32:59.776Z,1005.01
2022-07-25T05:33:59.776Z,1005.01
2022-07-25T05:34:59.784Z,1004.96
2022-07-25T05:35:59.771Z,1004.93
2022-07-25T05:36:59.778Z,1004.96
2022-07-25T05:37:59.780Z,1004.96
2022-07-25T05:38:59.788Z,1004.97
2022-07-25T05:39:59.789Z,1004.95
2022-07-25T05:40:59.788Z,1004.94
2022-07-25T05:41:59.796Z,1004.93
2022-07-25T05:43:03.305Z,1004.94
2022-07-25T05:43:59.792Z,1004.89
2022-07-25T05:44:59.799Z,1004.89
2022-07-25T05:45:59.799Z,1004.91
2022-07-25T05:46:59.898Z,1004.86
2022-07-25T05:47:59.801Z,1004.85
2022-07-25T05:48:59.850Z,1004.86
2022-07-25T05:49:59.801Z,1004.85
2022-07-25T05:50:59.811Z,1004.86
2022-07-25T05:51:59.808Z,1004.84
2022-07-25T05:52:59.821Z,1004.86
2022-07-25T05:53:59.819Z,1004.82
2022-07-25T05:54:59.819Z,1004.86
2022-07-25T05:55:59.815Z,1004.85
2022-07-25T05:56:59.821Z,1004.86
2022-07-25T05:57:59.825Z,1004.81
2022-07-25T05:58:59.825Z,1004.86
2022-07-25T05:59:59.844Z,1004.80
2022-07-25T06:00:59.842Z,1004.82
2022-07-25T06:01:59.966Z,1004.81
2022-07-25T06:02:59.946Z,1004.79
2022-07-25T06:03:59.833Z,1004.80
2022-07-25T06:04:59.842Z,1004.74
2022-07-25T06:05:59.837Z,1004.73
2022-07-25T06:06:59.843Z,1004.74
2022-07-25T06:07:59.846Z,1004.76
2022-07-25T06:08:59.859Z,1004.77
2022-07-25T06:09:59.852Z,1004.75
2022-07-25T06:10:59.853Z,1004.76
2022-07-25T06:12:01.306Z,1004.73
2022-07-25T06:12:59.863Z,1004.73
2022-07-25T06:13:59.862Z,1004.78
2022-07-25T06:14:59.862Z,1004.75
2022-07-25T06:15:59.899Z,1004.70
2022-07-25T06:16:59.870Z,1004.72
2022-07-25T06:17:59.869Z,1004.72
2022-07-25T06:18:59.864Z,1004.70
2022-07-25T06:19:59.880Z,1004.71
2022-07-25T06:20:59.884Z,1004.68
2022-07-25T06:21:59.886Z,1004.72
2022-07-25T06:22:59.891Z,1004.68
2022-07-25T06:23:59.883Z,1004.64
2022-07-25T06:24:59.880Z,1004.65
2022-07-25T06:25:59.896Z,1004.67
2022-07-25T06:26:59.890Z,1004.64
2022-07-25T06:27:59.882Z,1004.62
2022-07-25T06:28:59.896Z,1004.62
2022-07-25T06:29:59.888Z,1004.63
2022-07-25T06:30:59.978Z,1004.61
2022-07-25T06:31:59.913Z,1004.61
2022-07-25T06:32:59.906Z,1004.65
2022-07-25T06:33:59.900Z,1004.62
2022-07-25T06:34:59.907Z,1004.68
2022-07-25T06:35:59.907Z,1004.70
2022-07-25T06:36:59.907Z,1004.69
2022-07-25T06:37:59.911Z,1004.65
2022-07-25T06:38:59.949Z,1004.68
2022-07-25T06:39:59.912Z,1004.63
2022-07-25T06:40:59.924Z,1004.64
2022-07-25T06:41:59.925Z,1004.64
2022-07-25T06:42:59.929Z,1004.61
2022-07-25T06:43:59.922Z,1004.62
2022-07-25T06:44:59.925Z,1004.60
2022-07-25T06:45:59.938Z,1004.61
2022-07-25T06:46:59.985Z,1004.60
2022-07-25T06:47:59.938Z,1004.61
2022-07-25T06:49:00.015Z,1004.57
2022-07-25T06:49:59.939Z,1004.59
2022-07-25T06:50:59.943Z,1004.58
2022-07-25T06:51:59.947Z,1004.60
2022-07-25T06:52:59.942Z,1004.61
2022-07-25T06:53:59.948Z,1004.62
2022-07-25T06:54:59.955Z,1004.60
2022-07-25T06:55:59.960Z,1004.61
2022-07-25T06:56:59.962Z,1004.64
2022-07-25T06:57:59.965Z,1004.60
2022-07-25T06:58:59.967Z,1004.57
2022-07-25T06:59:59.962Z,1004.60
2022-07-25T07:01:00.094Z,1004.63
2022-07-25T07:01:59.967Z,1004.60
2022-07-25T07:03:00.029Z,1004.62
2022-07-25T07:03:59.973Z,1004.60
2022-07-25T07:04:59.974Z,1004.57
2022-07-25T07:05:59.979Z,1004.57
2022-07-25T07:06:59.978Z,1004.55
2022-07-25T07:07:59.978Z,1004.58
2022-07-25T07:08:59.989Z,1004.57
2022-07-25T07:10:00.001Z,1004.59
2022-07-25T07:10:59.997Z,1004.59
2022-07-25T07:11:59.986Z,1004.53
2022-07-25T07:12:59.988Z,1004.51
2022-07-25T07:14:00.004Z,1004.43
2022-07-25T07:15:00.000Z,1004.38
2022-07-25T07:16:00.082Z,1004.45
2022-07-25T07:17:00.010Z,1004.44
2022-07-25T07:18:00.012Z,1004.41
2022-07-25T07:19:00.005Z,1004.42
2022-07-25T07:20:00.038Z,1004.39
2022-07-25T07:21:00.024Z,1004.37
2022-07-25T07:22:00.023Z,1004.40
2022-07-25T07:23:00.018Z,1004.37
2022-07-25T07:24:00.019Z,1004.36
2022-07-25T07:25:00.029Z,1004.37
2022-07-25T07:26:00.022Z,1004.41
2022-07-25T07:27:00.030Z,1004.42
2022-07-25T07:28:00.026Z,1004.40
2022-07-25T07:29:00.030Z,1004.38
2022-07-25T07:30:00.040Z,1004.37
2022-07-25T07:31:15.607Z,1004.36
2022-07-25T07:32:00.168Z,1004.38
2022-07-25T07:33:00.048Z,1004.40
2022-07-25T07:34:00.043Z,1004.41
2022-07-25T07:35:00.046Z,1004.37
2022-07-25T07:36:00.052Z,1004.38
2022-07-25T07:37:00.056Z,1004.34
2022-07-25T07:38:00.057Z,1004.32
2022-07-25T07:39:00.062Z,1004.33
2022-07-25T07:40:00.083Z,1004.31
2022-07-25T07:41:00.067Z,1004.32
2022-07-25T07:42:00.059Z,1004.31
2022-07-25T07:43:00.071Z,1004.27
2022-07-25T07:44:00.069Z,1004.25
2022-07-25T07:45:00.086Z,1004.27
2022-07-25T07:46:00.229Z,1004.26
2022-07-25T07:47:00.165Z,1004.29
2022-07-25T07:48:00.070Z,1004.30
2022-07-25T07:49:00.128Z,1004.30
2022-07-25T07:50:00.108Z,1004.28
2022-07-25T07:51:00.083Z,1004.31
2022-07-25T07:52:00.084Z,1004.26
2022-07-25T07:53:00.101Z,1004.22
2022-07-25T07:54:00.098Z,1004.27
2022-07-25T07:55:00.112Z,1004.21
2022-07-25T07:56:00.102Z,1004.20
2022-07-25T07:57:00.104Z,1004.23
2022-07-25T07:58:00.098Z,1004.19
2022-07-25T07:59:00.102Z,1004.17
2022-07-25T08:00:00.118Z,1004.16
2022-07-25T08:01:00.112Z,1004.20
2022-07-25T08:02:00.301Z,1004.17
2022-07-25T08:03:00.318Z,1004.15
2022-07-25T08:04:00.126Z,1004.13
2022-07-25T08:05:00.140Z,1004.12
2022-07-25T08:06:00.142Z,1004.14
2022-07-25T08:07:00.127Z,1004.18
2022-07-25T08:08:00.132Z,1004.20
2022-07-25T08:09:00.139Z,1004.19
2022-07-25T08:10:00.159Z,1004.22
2022-07-25T08:11:00.157Z,1004.18
2022-07-25T08:12:00.137Z,1004.18
2022-07-25T08:13:00.146Z,1004.20
2022-07-25T08:14:00.140Z,1004.09
2022-07-25T08:15:00.145Z,1004.08
2022-07-25T08:16:00.280Z,1004.07
2022-07-25T08:17:00.151Z,1004.06
2022-07-25T08:18:00.161Z,1004.08
2022-07-25T08:19:00.178Z,1004.15
2022-07-25T08:20:14.689Z,1004.14
2022-07-25T08:21:00.181Z,1004.18
2022-07-25T08:22:00.159Z,1004.21
2022-07-25T08:23:00.176Z,1004.25
2022-07-25T08:24:00.200Z,1004.25
2022-07-25T08:25:00.191Z,1004.29
2022-07-25T08:26:00.179Z,1004.25
2022-07-25T08:27:00.193Z,1004.30
2022-07-25T08:28:00.202Z,1004.30
2022-07-25T08:29:18.010Z,1004.28
2022-07-25T08:30:00.209Z,1004.31
2022-07-25T08:31:00.295Z,1004.29
2022-07-25T08:32:00.192Z,1004.27
2022-07-25T08:33:00.200Z,1004.34
2022-07-25T08:34:00.206Z,1004.30
2022-07-25T08:35:00.214Z,1004.30
2022-07-25T08:36:00.197Z,1004.31
2022-07-25T08:37:00.209Z,1004.31
2022-07-25T08:38:00.204Z,1004.37
2022-07-25T08:39:00.219Z,1004.33
2022-07-25T08:40:00.238Z,1004.30
2022-07-25T08:41:00.213Z,1004.28
2022-07-25T08:42:00.247Z,1004.27
2022-07-25T08:43:00.219Z,1004.26
2022-07-25T08:44:00.225Z,1004.24
2022-07-25T08:45:00.228Z,1004.22
2022-07-25T08:46:00.304Z,1004.19
2022-07-25T08:47:00.239Z,1004.20
2022-07-25T08:48:00.231Z,1004.20
2022-07-25T08:49:00.300Z,1004.19
2022-07-25T08:50:04.209Z,1004.22
2022-07-25T08:51:00.263Z,1004.19
2022-07-25T08:52:00.237Z,1004.24
2022-07-25T08:53:30.214Z,1004.29
2022-07-25T08:54:00.246Z,1004.34
2022-07-25T08:55:00.242Z,1004.40
2022-07-25T08:56:00.257Z,1004.43
2022-07-25T08:57:00.247Z,1004.43
2022-07-25T08:58:00.260Z,1004.46
2022-07-25T08:59:00.257Z,1004.47
2022-07-25T09:00:00.255Z,1004.50
2022-07-25T09:01:00.264Z,1004.45
2022-07-25T09:02:00.303Z,1004.47
2022-07-25T09:03:00.329Z,1004.39
2022-07-25T09:04:00.274Z,1004.40
2022-07-25T09:05:00.294Z,1004.38
2022-07-25T09:06:00.270Z,1004.37
2022-07-25T09:07:02.054Z,1004.40
2022-07-25T09:08:00.286Z,1004.38
2022-07-25T09:09:00.295Z,1004.37
2022-07-25T09:10:00.292Z,1004.42
2022-07-25T09:11:00.288Z,1004.42
2022-07-25T09:12:00.294Z,1004.44
2022-07-25T09:13:00.313Z,1004.45
2022-07-25T09:14:00.313Z,1004.47
2022-07-25T09:15:00.290Z,1004.46
2022-07-25T09:16:00.393Z,1004.46
2022-07-25T09:17:00.308Z,1004.44
2022-07-25T09:18:00.313Z,1004.43
2022-07-25T09:19:00.320Z,1004.39
2022-07-25T09:20:00.312Z,1004.40
2022-07-25T09:21:00.336Z,1004.36
2022-07-25T09:22:00.316Z,1004.39
2022-07-25T09:23:00.313Z,1004.36
2022-07-25T09:24:00.330Z,1004.39
2022-07-25T09:25:00.329Z,1004.41
2022-07-25T09:26:00.330Z,1004.40
2022-07-25T09:27:00.320Z,1004.44
2022-07-25T09:28:00.326Z,1004.41
2022-07-25T09:29:00.341Z,1004.43
2022-07-25T09:30:00.339Z,1004.47
2022-07-25T09:31:00.418Z,1004.46
2022-07-25T09:32:00.349Z,1004.47
2022-07-25T09:33:00.342Z,1004.53
2022-07-25T09:34:00.381Z,1004.54
2022-07-25T09:35:00.346Z,1004.56
2022-07-25T09:36:00.356Z,1004.54
2022-07-25T09:37:00.371Z,1004.52
2022-07-25T09:38:00.348Z,1004.56
2022-07-25T09:39:00.362Z,1004.58
2022-07-25T09:40:00.358Z,1004.61
2022-07-25T09:41:00.355Z,1004.60
2022-07-25T09:42:00.434Z,1004.66
2022-07-25T09:43:00.369Z,1004.66
2022-07-25T09:44:00.373Z,1004.66
2022-07-25T09:45:00.367Z,1004.67
2022-07-25T09:46:00.407Z,1004.67
2022-07-25T09:47:00.381Z,1004.71
2022-07-25T09:48:00.381Z,1004.73
2022-07-25T09:49:00.532Z,1004.75
2022-07-25T09:50:00.391Z,1004.76
2022-07-25T09:51:00.388Z,1004.79
2022-07-25T09:52:00.390Z,1004.80
2022-07-25T09:53:00.401Z,1004.79
2022-07-25T09:54:00.399Z,1004.81
2022-07-25T09:55:00.392Z,1004.84
2022-07-25T09:56:00.401Z,1004.85
2022-07-25T09:57:00.404Z,1004.90
2022-07-25T09:58:00.410Z,1004.94
2022-07-25T09:59:00.399Z,1004.93
2022-07-25T10:00:00.414Z,1004.95
2022-07-25T10:01:00.440Z,1004.98
2022-07-25T10:02:00.534Z,1004.98
2022-07-25T10:03:00.462Z,1004.98
2022-07-25T10:04:00.420Z,1005.01
2022-07-25T10:05:00.419Z,1005.05
2022-07-25T10:06:00.424Z,1005.10
2022-07-25T10:07:00.420Z,1005.14
2022-07-25T10:08:00.448Z,1005.14
2022-07-25T10:09:00.425Z,1005.15
2022-07-25T10:10:00.449Z,1005.16
2022-07-25T10:11:00.434Z,1005.13
2022-07-25T10:12:00.445Z,1005.17
2022-07-25T10:13:00.441Z,1005.15
2022-07-25T10:14:00.440Z,1005.14
2022-07-25T10:15:00.458Z,1005.17
2022-07-25T10:16:00.445Z,1005.15
2022-07-25T10:17:00.586Z,1005.16
2022-07-25T10:18:00.461Z,1005.22
2022-07-25T10:19:00.447Z,1005.22
2022-07-25T10:20:00.455Z,1005.28
2022-07-25T10:21:00.463Z,1005.28
2022-07-25T10:22:00.475Z,1005.21
2022-07-25T10:23:00.476Z,1005.21
2022-07-25T10:24:00.469Z,1005.13
2022-07-25T10:25:00.468Z,1005.16
2022-07-25T10:26:00.471Z,1005.05
2022-07-25T10:27:00.474Z,1005.01
2022-07-25T10:28:00.496Z,1004.97
2022-07-25T10:29:00.478Z,1004.92
2022-07-25T10:30:00.473Z,1004.87
2022-07-25T10:31:00.558Z,1004.88
2022-07-25T10:32:00.488Z,1004.85
2022-07-25T10:33:00.483Z,1004.82
2022-07-25T10:34:00.497Z,1004.76
2022-07-25T10:35:00.496Z,1004.72
2022-07-25T10:36:00.493Z,1004.69
2022-07-25T10:37:00.502Z,1004.59
2022-07-25T10:38:00.491Z,1004.61
2022-07-25T10:39:00.505Z,1004.65
2022-07-25T10:40:00.505Z,1004.69
2022-07-25T10:41:00.501Z,1004.77
2022-07-25T10:42:00.502Z,1004.84
2022-07-25T10:43:00.512Z,1004.88
2022-07-25T10:44:00.522Z,1004.93
2022-07-25T10:45:00.522Z,1004.97
2022-07-25T10:46:00.540Z,1005.01
2022-07-25T10:47:00.526Z,1005.04
2022-07-25T10:48:00.523Z,1005.03
2022-07-25T10:49:00.606Z,1005.07
2022-07-25T10:50:16.672Z,1005.05
2022-07-25T10:51:00.573Z,1005.05
2022-07-25T10:52:00.533Z,1005.00
2022-07-25T10:53:00.541Z,1005.05
2022-07-25T10:54:00.532Z,1005.05
2022-07-25T10:55:00.535Z,1005.11
2022-07-25T10:56:06.117Z,1005.15
2022-07-25T10:57:00.548Z,1005.22
2022-07-25T10:58:16.578Z,1005.18
2022-07-25T10:59:00.566Z,1005.26
2022-07-25T11:00:00.548Z,1005.23
2022-07-25T11:01:00.618Z,1005.16
2022-07-25T11:02:00.554Z,1005.17
2022-07-25T11:03:00.619Z,1005.21
2022-07-25T11:04:00.560Z,1005.17
2022-07-25T11:05:00.564Z,1005.24
2022-07-25T11:06:00.566Z,1005.15
2022-07-25T11:07:00.565Z,1005.13
2022-07-25T11:08:23.108Z,1005.19
2022-07-25T11:09:00.576Z,1005.19
2022-07-25T11:10:00.573Z,1005.20
2022-07-25T11:11:00.579Z,1005.19
2022-07-25T11:12:00.576Z,1005.16
2022-07-25T11:13:00.584Z,1005.14
2022-07-25T11:14:00.600Z,1005.11
2022-07-25T11:15:00.590Z,1005.05
2022-07-25T11:16:00.597Z,1005.02
2022-07-25T11:17:00.662Z,1005.04
2022-07-25T11:18:00.592Z,1005.08
2022-07-25T11:19:00.601Z,1005.12
2022-07-25T11:20:00.628Z,1005.09
2022-07-25T11:21:04.345Z,1005.02
2022-07-25T11:22:00.616Z,1005.08
2022-07-25T11:23:00.605Z,1005.07
2022-07-25T11:24:00.608Z,1005.09
2022-07-25T11:25:00.606Z,1005.13
2022-07-25T11:26:00.615Z,1005.11
2022-07-25T11:27:00.611Z,1005.08
2022-07-25T11:28:00.618Z,1004.98
2022-07-25T11:29:00.630Z,1005.02
2022-07-25T11:30:00.622Z,1005.04
2022-07-25T11:31:00.627Z,1004.99
2022-07-25T11:32:00.662Z,1005.02
2022-07-25T11:33:00.620Z,1005.00
2022-07-25T11:34:00.641Z,1005.03
2022-07-25T11:35:00.639Z,1005.00
2022-07-25T11:36:00.638Z,1005.02
2022-07-25T11:37:00.641Z,1005.06
2022-07-25T11:38:00.640Z,1005.05
2022-07-25T11:39:00.641Z,1005.05
2022-07-25T11:40:00.651Z,1005.10
2022-07-25T11:41:00.660Z,1005.09
2022-07-25T11:42:00.642Z,1005.08
2022-07-25T11:43:00.655Z,1005.07
2022-07-25T11:44:00.652Z,1005.06
2022-07-25T11:45:00.652Z,1005.06
2022-07-25T11:46:00.833Z,1005.06
2022-07-25T11:47:00.660Z,1005.04
2022-07-25T11:48:00.660Z,1005.06
2022-07-25T11:49:00.716Z,1005.06
2022-07-25T11:50:00.673Z,1005.10
2022-07-25T11:51:00.671Z,1005.13
2022-07-25T11:52:00.676Z,1005.12
2022-07-25T11:53:00.673Z,1005.14
2022-07-25T11:54:00.681Z,1005.14
2022-07-25T11:55:00.677Z,1005.18
2022-07-25T11:56:10.162Z,1005.23
2022-07-25T11:57:00.693Z,1005.27
2022-07-25T11:58:00.698Z,1005.25
2022-07-25T11:59:00.703Z,1005.37
2022-07-25T12:00:00.693Z,1005.34
2022-07-25T12:01:00.700Z,1005.39
2022-07-25T12:02:00.774Z,1005.38
2022-07-25T12:03:00.815Z,1005.37
2022-07-25T12:04:00.709Z,1005.41
2022-07-25T12:05:00.713Z,1005.37
2022-07-25T12:06:00.704Z,1005.37